createdAt,value
2022-08-06T00:02:10.452Z,1017.83
2022-08-06T00:07:48.540Z,1017.92
2022-08-06T00:10:33.460Z,1017.93
2022-08-06T00:16:30.924Z,1018.10
2022-08-06T00:21:55.025Z,1018.20
2022-08-06T00:27:38.701Z,1018.33
2022-08-06T00:30:24.183Z,1018.25
2022-08-06T00:36:00.655Z,1018.32
2022-08-06T00:41:45.593Z,1018.15
2022-08-06T00:50:11.061Z,1018.35
2022-08-06T00:56:01.390Z,1018.31
2022-08-06T01:01:32.723Z,1018.35
2022-08-06T01:07:10.371Z,1018.37
2022-08-06T01:10:02.794Z,1018.43
2022-08-06T01:16:07.125Z,1018.52
2022-08-06T01:22:29.369Z,1018.51
2022-08-06T01:27:06.952Z,1018.58
2022-08-06T01:29:53.389Z,1018.52
2022-08-06T01:35:46.873Z,1018.50
2022-08-06T01:38:23.166Z,1018.49
2022-08-06T01:41:09.033Z,1018.49
2022-08-06T01:46:46.010Z,1018.41
2022-08-06T01:52:29.938Z,1018.54
2022-08-06T01:58:19.079Z,1018.56
2022-08-06T02:01:01.291Z,1018.51
2022-08-06T02:06:37.105Z,1018.57
2022-08-06T02:12:12.301Z,1018.61
2022-08-06T02:18:06.140Z,1018.67
2022-08-06T02:20:53.113Z,1018.64
2022-08-06T02:26:32.236Z,1018.67
2022-08-06T02:32:08.351Z,1018.68
2022-08-06T02:38:00.875Z,1018.89
2022-08-06T02:40:39.786Z,1018.98
2022-08-06T02:46:15.727Z,1019.04
2022-08-06T02:52:17.721Z,1019.09
2022-08-06T02:57:48.318Z,1019.13
2022-08-06T03:00:29.455Z,1019.11
2022-08-06T03:06:05.020Z,1019.15
2022-08-06T03:11:47.480Z,1019.17
2022-08-06T03:17:22.976Z,1019.23
2022-08-06T03:22:59.406Z,1019.25
2022-08-06T03:28:36.939Z,1019.37
2022-08-06T03:31:22.448Z,1019.40
2022-08-06T03:37:00.630Z,1019.50
2022-08-06T03:42:37.125Z,1019.58
2022-08-06T03:45:35.820Z,1019.63
2022-08-06T03:51:10.158Z,1019.71
2022-08-06T03:56:46.573Z,1019.77
2022-08-06T04:02:44.948Z,1019.85
2022-08-06T04:05:24.220Z,1019.87
2022-08-06T04:16:41.370Z,1019.97
2022-08-06T04:22:59.424Z,1020.00
2022-08-06T04:28:01.328Z,1020.08
2022-08-06T04:30:47.267Z,1020.13
2022-08-06T04:36:25.634Z,1020.20
2022-08-06T04:42:06.222Z,1020.29
2022-08-06T04:47:47.319Z,1020.38
2022-08-06T04:50:35.327Z,1020.46
2022-08-06T04:56:15.500Z,1020.55
2022-08-06T05:02:00.360Z,1020.62
2022-08-06T05:07:52.568Z,1020.72
2022-08-06T05:10:33.083Z,1020.74
2022-08-06T05:16:08.396Z,1020.74
2022-08-06T05:22:10.372Z,1020.87
2022-08-06T05:27:49.318Z,1021.00
2022-08-06T05:30:24.609Z,1021.04
2022-08-06T05:36:05.098Z,1021.02
2022-08-06T05:41:40.960Z,1021.07
2022-08-06T05:47:18.050Z,1021.06
2022-08-06T05:50:11.613Z,1021.04
2022-08-06T05:55:49.548Z,1021.15
2022-08-06T06:01:24.900Z,1021.26
2022-08-06T06:07:02.403Z,1021.22
2022-08-06T06:12:40.288Z,1021.32
2022-08-06T06:21:17.559Z,1021.39
2022-08-06T06:26:51.171Z,1021.43
2022-08-06T06:32:30.355Z,1021.52
2022-08-06T06:38:07.797Z,1021.55
2022-08-06T06:41:02.975Z,1021.54
2022-08-06T06:50:00.273Z,1021.67
2022-08-06T06:52:30.113Z,1021.63
2022-08-06T06:55:36.354Z,1021.64
2022-08-06T07:01:11.800Z,1021.72
2022-08-06T07:06:57.627Z,1021.77
2022-08-06T07:12:39.971Z,1021.82
2022-08-06T07:18:27.297Z,1021.90
2022-08-06T07:21:09.859Z,1021.93
2022-08-06T07:26:51.060Z,1021.99
2022-08-06T07:32:30.691Z,1022.05
2022-08-06T07:38:11.653Z,1021.95
2022-08-06T07:43:51.582Z,1022.06
2022-08-06T07:49:59.775Z,1022.04
2022-08-06T07:52:26.981Z,1022.13
2022-08-06T07:58:03.754Z,1022.06
2022-08-06T08:00:50.010Z,1022.08
2022-08-06T08:03:43.278Z,1022.12
2022-08-06T08:09:28.850Z,1022.09
2022-08-06T08:12:33.592Z,1022.16
2022-08-06T08:17:58.560Z,1022.17
2022-08-06T08:23:37.468Z,1022.13
2022-08-06T08:29:28.379Z,1022.11
2022-08-06T08:35:02.848Z,1022.17
2022-08-06T08:40:39.443Z,1022.24
2022-08-06T08:43:59.498Z,1022.30
2022-08-06T08:49:16.064Z,1022.20
2022-08-06T08:52:03.880Z,1022.12
2022-08-06T08:58:37.480Z,1022.18
2022-08-06T09:03:32.372Z,1022.22
2022-08-06T09:09:07.757Z,1022.21
2022-08-06T09:12:05.168Z,1022.22
2022-08-06T09:14:54.955Z,1022.17
2022-08-06T09:20:31.663Z,1022.14
2022-08-06T09:23:19.258Z,1022.19
2022-08-06T09:28:55.307Z,1022.18
2022-08-06T09:31:44.543Z,1022.21
2022-08-06T09:37:26.034Z,1022.25
2022-08-06T09:43:05.408Z,1022.34
2022-08-06T09:48:40.808Z,1022.31
2022-08-06T09:51:51.147Z,1022.37
2022-08-06T09:57:10.372Z,1022.32
2022-08-06T10:02:51.174Z,1022.32
2022-08-06T10:11:21.049Z,1022.28
2022-08-06T10:16:57.138Z,1022.26
2022-08-06T10:22:33.076Z,1022.35
2022-08-06T10:28:08.476Z,1022.33
2022-08-06T10:33:46.401Z,1022.30
2022-08-06T10:40:09.635Z,1022.20
2022-08-06T10:42:22.452Z,1022.25
2022-08-06T10:49:00.286Z,1022.25
2022-08-06T10:54:00.648Z,1022.20
2022-08-06T10:59:41.420Z,1022.23
2022-08-06T11:02:25.017Z,1022.16
2022-08-06T11:10:52.335Z,1022.21
2022-08-06T11:13:52.391Z,1022.13
2022-08-06T11:19:23.066Z,1022.13
2022-08-06T11:22:15.082Z,1022.22
2022-08-06T11:27:50.672Z,1022.09
2022-08-06T11:36:17.463Z,1022.03
2022-08-06T11:41:57.085Z,1022.09
2022-08-06T11:47:38.544Z,1021.94
2022-08-06T11:53:13.951Z,1021.98
2022-08-06T11:58:51.283Z,1021.97
2022-08-06T12:01:36.596Z,1021.93
2022-08-06T12:07:15.125Z,1021.94
2022-08-06T12:12:52.051Z,1021.96
2022-08-06T12:18:31.366Z,1021.91
2022-08-06T12:21:16.837Z,1021.94
2022-08-06T12:26:53.348Z,1021.96
2022-08-06T12:32:30.008Z,1021.94
2022-08-06T12:38:05.243Z,1021.95
2022-08-06T12:43:46.674Z,1021.92
2022-08-06T12:49:39.601Z,1021.86
2022-08-06T12:52:21.274Z,1021.90
2022-08-06T12:58:07.850Z,1021.81
2022-08-06T13:06:40.879Z,1021.80
2022-08-06T13:12:28.854Z,1021.84
2022-08-06T13:18:01.619Z,1021.81
2022-08-06T13:23:38.229Z,1021.85
2022-08-06T13:30:34.443Z,1021.75
2022-08-06T13:32:19.537Z,1021.67
2022-08-06T13:37:55.910Z,1021.68
2022-08-06T13:43:39.076Z,1021.68
2022-08-06T13:49:19.922Z,1021.67
2022-08-06T13:52:04.940Z,1021.66
2022-08-06T13:57:43.907Z,1021.71
2022-08-06T14:03:19.928Z,1021.58
2022-08-06T14:08:55.924Z,1021.53
2022-08-06T14:11:44.029Z,1021.48
2022-08-06T14:17:21.917Z,1021.32
2022-08-06T14:22:58.044Z,1021.25
2022-08-06T14:28:36.116Z,1021.26
2022-08-06T14:31:29.656Z,1021.34
2022-08-06T14:37:14.514Z,1021.39
2022-08-06T14:42:49.536Z,1021.44
2022-08-06T14:45:39.222Z,1021.48
2022-08-06T14:51:15.020Z,1021.22
2022-08-06T14:56:59.424Z,1021.18
2022-08-06T15:02:35.239Z,1021.12
2022-08-06T15:08:10.704Z,1021.05
2022-08-06T15:13:51.860Z,1020.98
2022-08-06T15:19:42.051Z,1020.93
2022-08-06T15:22:31.533Z,1020.97
2022-08-06T15:31:02.316Z,1020.75
2022-08-06T15:33:51.966Z,1020.75
2022-08-06T15:39:52.488Z,1020.77
2022-08-06T15:42:21.032Z,1020.89
2022-08-06T15:47:59.731Z,1020.81
2022-08-06T15:53:43.297Z,1020.79
2022-08-06T15:59:20.593Z,1020.85
2022-08-06T16:02:05.960Z,1020.83
2022-08-06T16:07:49.816Z,1020.77
2022-08-06T16:13:25.572Z,1020.75
2022-08-06T16:19:02.434Z,1020.67
2022-08-06T16:21:48.316Z,1020.63
2022-08-06T16:27:27.296Z,1020.55
2022-08-06T16:33:08.930Z,1020.64
2022-08-06T16:38:51.741Z,1020.70
2022-08-06T16:41:56.758Z,1020.70
2022-08-06T16:47:21.998Z,1020.71
2022-08-06T16:55:49.048Z,1020.74
2022-08-06T17:02:15.463Z,1020.80
2022-08-06T17:07:08.603Z,1020.81
2022-08-06T17:09:54.608Z,1020.85
2022-08-06T17:12:48.537Z,1020.83
2022-08-06T17:21:24.156Z,1020.82
2022-08-06T17:27:09.063Z,1020.79
2022-08-06T17:32:46.139Z,1020.87
2022-08-06T17:38:21.942Z,1020.87
2022-08-06T17:43:58.475Z,1020.90
2022-08-06T17:49:34.841Z,1021.01
2022-08-06T17:52:30.352Z,1021.00
2022-08-06T17:58:37.892Z,1021.05
2022-08-06T18:03:49.522Z,1021.09
2022-08-06T18:10:09.612Z,1021.07
2022-08-06T18:15:13.349Z,1021.07
2022-08-06T18:20:55.741Z,1021.14
2022-08-06T18:23:41.224Z,1021.19
2022-08-06T18:29:16.569Z,1021.26
2022-08-06T18:32:03.470Z,1021.26
2022-08-06T18:40:39.888Z,1021.33
2022-08-06T18:43:24.647Z,1021.35
2022-08-06T18:49:09.457Z,1021.37
2022-08-06T18:52:02.413Z,1021.41
2022-08-06T18:57:38.073Z,1021.48
2022-08-06T19:03:37.683Z,1021.59
2022-08-06T19:09:05.982Z,1021.61
2022-08-06T19:11:51.427Z,1021.64
2022-08-06T19:18:09.702Z,1021.72
2022-08-06T19:23:12.295Z,1021.77
2022-08-06T19:28:50.331Z,1021.79
2022-08-06T19:31:43.206Z,1021.84
2022-08-06T19:37:58.547Z,1021.83
2022-08-06T19:40:13.836Z,1021.82
2022-08-06T19:44:25.935Z,1021.81
2022-08-06T19:48:51.602Z,1021.85
2022-08-06T19:52:04.601Z,1021.91
2022-08-06T19:57:20.617Z,1021.90
2022-08-06T20:06:20.390Z,1021.99
2022-08-06T20:12:02.655Z,1021.99
2022-08-06T20:17:17.819Z,1022.07
2022-08-06T20:22:56.468Z,1022.16
2022-08-06T20:31:22.724Z,1022.20
2022-08-06T20:36:58.758Z,1022.19
2022-08-06T20:42:34.475Z,1022.22
2022-08-06T20:48:10.904Z,1022.26
2022-08-06T20:53:56.098Z,1022.24
2022-08-06T20:59:33.892Z,1022.25
2022-08-06T21:02:25.670Z,1022.28
2022-08-06T21:08:09.225Z,1022.31
2022-08-06T21:13:59.883Z,1022.34
2022-08-06T21:19:41.040Z,1022.37
2022-08-06T21:22:30.003Z,1022.40
2022-08-06T21:28:07.431Z,1022.40
2022-08-06T21:33:53.991Z,1022.39
2022-08-06T21:39:52.164Z,1022.36
2022-08-06T21:45:14.423Z,1022.34
2022-08-06T21:50:49.728Z,1022.36
2022-08-06T21:53:45.768Z,1022.40
2022-08-06T21:59:18.512Z,1022.42
2022-08-06T22:02:09.680Z,1022.42
2022-08-06T22:08:05.458Z,1022.48
2022-08-06T22:13:50.757Z,1022.41
2022-08-06T22:19:18.102Z,1022.42
2022-08-06T22:22:02.568Z,1022.38
2022-08-06T22:27:49.459Z,1022.42
2022-08-06T22:33:33.323Z,1022.47
2022-08-06T22:42:07.487Z,1022.49
2022-08-06T22:47:43.638Z,1022.49
2022-08-06T22:54:26.512Z,1022.45
2022-08-06T22:59:18.864Z,1022.46
2022-08-06T23:02:07.463Z,1022.43
2022-08-06T23:07:53.952Z,1022.37
2022-08-06T23:13:38.579Z,1022.32
2022-08-06T23:19:12.649Z,1022.33
2022-08-06T23:22:01.873Z,1022.35
2022-08-06T23:25:03.845Z,1022.36
2022-08-06T23:30:37.811Z,1022.34
2022-08-06T23:33:38.252Z,1022.33
2022-08-06T23:39:22.502Z,1022.35
2022-08-06T23:42:21.898Z,1022.35
2022-08-06T23:47:56.531Z,1022.33
2022-08-06T23:50:50.482Z,1022.31
2022-08-06T23:56:26.681Z,1022.30
